createdAt,value
2023-02-16T00:00:26.209Z,31.63
2023-02-16T00:02:52.525Z,29.33
2023-02-16T00:05:28.885Z,30.52
2023-02-16T00:07:56.132Z,29.15
2023-02-16T00:10:23.348Z,29.60
2023-02-16T00:13:08.578Z,28.98
2023-02-16T00:15:35.414Z,26.83
2023-02-16T00:18:05.853Z,29.80
2023-02-16T00:20:32.236Z,32.60
2023-02-16T00:22:58.843Z,39.13
2023-02-16T00:25:25.170Z,32.15
2023-02-16T00:27:51.630Z,29.80
2023-02-16T00:30:20.830Z,30.83
2023-02-16T00:32:49.677Z,31.00
2023-02-16T00:35:21.075Z,30.33
2023-02-16T00:37:48.570Z,30.77
2023-02-16T00:40:17.265Z,30.42
2023-02-16T00:42:46.270Z,28.00
2023-02-16T00:45:22.146Z,28.00
2023-02-16T00:47:51.019Z,29.40
2023-02-16T00:50:29.054Z,28.35
2023-02-16T00:52:58.160Z,28.50
2023-02-16T00:55:29.140Z,25.33
2023-02-16T00:58:01.701Z,29.20
2023-02-16T01:00:36.068Z,29.23
2023-02-16T01:03:06.490Z,26.38
2023-02-16T01:05:32.958Z,29.30
2023-02-16T01:08:18.821Z,29.63
2023-02-16T01:11:04.246Z,29.00
2023-02-16T01:13:32.729Z,27.83
2023-02-16T01:15:59.225Z,29.95
2023-02-16T01:18:28.936Z,31.77
2023-02-16T01:20:55.242Z,30.25
2023-02-16T01:23:21.577Z,27.85
2023-02-16T01:25:47.961Z,25.27
2023-02-16T01:28:25.817Z,27.27
2023-02-16T01:30:52.820Z,28.25
2023-02-16T01:33:19.822Z,27.50
2023-02-16T01:35:46.355Z,26.55
2023-02-16T01:38:21.776Z,29.67
2023-02-16T01:41:28.149Z,25.67
2023-02-16T01:44:12.545Z,26.17
2023-02-16T01:46:51.440Z,27.23
2023-02-16T01:49:20.052Z,25.10
2023-02-16T01:52:19.155Z,24.05
2023-02-16T01:55:05.090Z,24.85
2023-02-16T01:57:43.361Z,23.05
2023-02-16T02:00:15.609Z,22.92
2023-02-16T02:02:52.423Z,26.92
2023-02-16T02:05:37.856Z,25.73
2023-02-16T02:08:34.864Z,24.85
2023-02-16T02:11:18.109Z,24.95
2023-02-16T02:14:03.213Z,25.00
2023-02-16T02:16:29.701Z,23.52
2023-02-16T02:18:56.224Z,25.13
2023-02-16T02:22:14.509Z,22.95
2023-02-16T02:25:26.468Z,23.58
2023-02-16T02:28:01.938Z,25.40
2023-02-16T02:30:43.127Z,25.67
2023-02-16T02:33:35.108Z,24.60
2023-02-16T02:36:32.860Z,25.83
2023-02-16T02:39:11.291Z,23.92
2023-02-16T02:42:06.497Z,22.63
2023-02-16T02:44:52.965Z,25.77
2023-02-16T02:47:19.322Z,26.63
2023-02-16T02:49:53.837Z,25.88
2023-02-16T02:52:22.295Z,23.67
2023-02-16T02:55:08.746Z,25.65
2023-02-16T02:57:59.973Z,27.65
2023-02-16T03:00:43.650Z,23.98
2023-02-16T03:03:42.610Z,27.38
2023-02-16T03:06:21.574Z,25.88
2023-02-16T03:08:53.915Z,24.67
2023-02-16T03:11:47.911Z,26.70
2023-02-16T03:14:22.337Z,26.73
2023-02-16T03:17:17.001Z,25.95
2023-02-16T03:20:04.639Z,26.75
2023-02-16T03:22:50.908Z,24.45
2023-02-16T03:25:36.652Z,25.17
2023-02-16T03:28:24.970Z,27.77
2023-02-16T03:30:53.148Z,28.98
2023-02-16T03:33:20.771Z,25.67
2023-02-16T03:35:47.821Z,24.10
2023-02-16T03:38:14.282Z,27.58
2023-02-16T03:40:43.994Z,26.33
2023-02-16T03:43:10.386Z,26.10
2023-02-16T03:45:40.891Z,25.05
2023-02-16T03:48:08.491Z,28.48
2023-02-16T03:50:34.926Z,28.73
2023-02-16T03:53:07.602Z,30.45
2023-02-16T03:55:39.470Z,28.13
2023-02-16T03:58:06.773Z,27.05
2023-02-16T04:00:33.811Z,25.10
2023-02-16T04:03:00.357Z,29.42
2023-02-16T04:05:27.334Z,26.92
2023-02-16T04:07:53.783Z,27.33
2023-02-16T04:10:20.473Z,26.92
2023-02-16T04:12:46.950Z,26.55
2023-02-16T04:15:16.810Z,26.60
2023-02-16T04:17:44.017Z,26.00
2023-02-16T04:20:13.799Z,25.33
2023-02-16T04:22:40.278Z,25.33
2023-02-16T04:25:07.380Z,28.35
2023-02-16T04:27:38.397Z,28.23
2023-02-16T04:30:06.660Z,27.55
2023-02-16T04:32:33.353Z,27.13
2023-02-16T04:34:59.774Z,26.85
2023-02-16T04:37:26.128Z,28.85
2023-02-16T04:39:52.477Z,28.02
2023-02-16T04:42:18.827Z,23.83
2023-02-16T04:44:45.292Z,25.65
2023-02-16T04:47:11.860Z,27.88
2023-02-16T04:49:38.167Z,24.88
2023-02-16T04:52:04.780Z,28.48
2023-02-16T04:54:32.062Z,24.55
2023-02-16T04:56:59.466Z,25.65
2023-02-16T04:59:26.590Z,25.85
2023-02-16T05:01:53.324Z,23.23
2023-02-16T05:04:20.080Z,24.30
2023-02-16T05:06:46.407Z,23.98
2023-02-16T05:09:12.762Z,25.15
2023-02-16T05:11:57.765Z,24.67
2023-02-16T05:14:47.046Z,25.10
2023-02-16T05:17:22.265Z,25.65
2023-02-16T05:19:51.558Z,23.70
2023-02-16T05:22:19.014Z,26.80
2023-02-16T05:24:45.413Z,29.10
2023-02-16T05:27:14.826Z,21.98
2023-02-16T05:29:41.235Z,25.65
2023-02-16T05:32:07.745Z,25.35
2023-02-16T05:34:34.309Z,23.88
2023-02-16T05:37:00.656Z,24.17
2023-02-16T05:39:28.164Z,26.98
2023-02-16T05:41:54.541Z,23.73
2023-02-16T05:44:21.302Z,24.02
2023-02-16T05:46:47.723Z,23.88
2023-02-16T05:49:15.330Z,25.42
2023-02-16T05:51:42.064Z,23.17
2023-02-16T05:54:10.563Z,25.92
2023-02-16T05:56:37.004Z,24.85
2023-02-16T05:59:03.294Z,23.40
2023-02-16T06:01:29.630Z,24.50
2023-02-16T06:03:56.176Z,22.02
2023-02-16T06:06:22.539Z,22.60
2023-02-16T06:08:48.833Z,23.73
2023-02-16T06:11:33.796Z,22.23
2023-02-16T06:14:01.599Z,23.15
2023-02-16T06:16:30.536Z,23.40
2023-02-16T06:18:57.601Z,22.95
2023-02-16T06:21:24.824Z,23.60
2023-02-16T06:23:51.538Z,23.00
2023-02-16T06:26:17.984Z,23.08
2023-02-16T06:28:44.466Z,21.73
2023-02-16T06:31:11.247Z,24.42
2023-02-16T06:33:37.686Z,21.45
2023-02-16T06:36:04.744Z,20.92
2023-02-16T06:38:31.139Z,21.55
2023-02-16T06:40:57.466Z,19.20
2023-02-16T06:43:23.833Z,22.33
2023-02-16T06:45:50.154Z,21.95
2023-02-16T06:48:16.592Z,21.92
2023-02-16T06:50:42.924Z,23.55
2023-02-16T06:53:09.360Z,21.58
2023-02-16T06:55:36.639Z,22.83
2023-02-16T06:58:04.717Z,24.48
2023-02-16T07:00:31.572Z,26.98
2023-02-16T07:02:57.990Z,22.25
2023-02-16T07:05:24.832Z,23.65
2023-02-16T07:07:51.140Z,22.90
2023-02-16T07:10:17.695Z,21.75
2023-02-16T07:12:44.024Z,21.20
2023-02-16T07:15:10.456Z,21.27
2023-02-16T07:17:36.806Z,21.88
2023-02-16T07:20:05.234Z,22.08
2023-02-16T07:22:32.355Z,20.55
2023-02-16T07:25:00.538Z,22.38
2023-02-16T07:27:27.503Z,23.52
2023-02-16T07:29:53.867Z,23.63
2023-02-16T07:32:20.232Z,24.63
2023-02-16T07:34:46.580Z,22.33
2023-02-16T07:37:12.882Z,20.70
2023-02-16T07:39:39.274Z,22.30
2023-02-16T07:42:05.599Z,24.88
2023-02-16T07:44:33.498Z,23.40
2023-02-16T07:46:59.938Z,21.95
2023-02-16T07:49:26.219Z,24.08
2023-02-16T07:51:52.597Z,21.90
2023-02-16T07:54:18.904Z,23.10
2023-02-16T07:56:46.809Z,22.08
2023-02-16T07:59:15.279Z,23.10
2023-02-16T08:01:42.399Z,20.73
2023-02-16T08:04:09.031Z,20.25
2023-02-16T08:06:35.451Z,22.67
2023-02-16T08:09:01.943Z,24.45
2023-02-16T08:11:28.454Z,23.00
2023-02-16T08:13:55.051Z,21.92
2023-02-16T08:16:24.542Z,21.17
2023-02-16T08:18:51.658Z,22.55
2023-02-16T08:21:20.406Z,21.35
2023-02-16T08:23:58.284Z,20.55
2023-02-16T08:26:27.472Z,28.73
2023-02-16T08:28:53.869Z,21.77
2023-02-16T08:31:23.381Z,20.13
2023-02-16T08:33:50.865Z,23.27
2023-02-16T08:36:34.892Z,21.55
2023-02-16T08:39:04.059Z,20.45
2023-02-16T08:41:32.717Z,22.50
2023-02-16T08:44:00.760Z,23.38
2023-02-16T08:46:34.592Z,23.23
2023-02-16T08:49:01.582Z,22.20
2023-02-16T08:51:30.409Z,21.85
2023-02-16T08:53:58.649Z,20.50
2023-02-16T08:56:25.849Z,20.13
2023-02-16T08:58:52.719Z,21.23
2023-02-16T09:01:19.101Z,20.92
2023-02-16T09:03:46.121Z,20.40
2023-02-16T09:06:15.510Z,19.50
2023-02-16T09:08:42.030Z,21.90
2023-02-16T09:11:12.365Z,22.50
2023-02-16T09:13:40.877Z,17.73
2023-02-16T09:16:09.955Z,21.92
2023-02-16T09:18:37.177Z,21.27
2023-02-16T09:21:10.782Z,22.23
2023-02-16T09:23:39.873Z,20.65
2023-02-16T09:26:07.468Z,20.80
2023-02-16T09:28:34.924Z,22.48
2023-02-16T09:31:01.400Z,21.40
2023-02-16T09:33:28.845Z,20.63
2023-02-16T09:35:55.193Z,21.88
2023-02-16T09:38:21.499Z,21.65
2023-02-16T09:40:48.037Z,21.83
2023-02-16T09:43:25.285Z,21.08
2023-02-16T09:45:54.783Z,24.55
2023-02-16T09:48:34.033Z,22.48
2023-02-16T09:51:01.676Z,23.20
2023-02-16T09:53:50.098Z,23.20
2023-02-16T09:56:34.711Z,26.20
2023-02-16T09:59:14.391Z,23.05
2023-02-16T10:01:47.746Z,25.95
2023-02-16T10:04:30.940Z,26.05
2023-02-16T10:07:29.098Z,30.05
2023-02-16T10:09:57.780Z,26.92
2023-02-16T10:12:28.982Z,27.58
2023-02-16T10:17:38.882Z,29.15
2023-02-16T10:20:26.864Z,28.55
2023-02-16T10:23:11.822Z,28.02
2023-02-16T10:25:47.365Z,27.17
2023-02-16T10:28:38.421Z,27.25
2023-02-16T10:31:13.728Z,25.65
2023-02-16T10:33:45.741Z,25.88
2023-02-16T10:36:46.290Z,25.48
2023-02-16T10:39:18.486Z,23.13
2023-02-16T10:41:52.293Z,24.88
2023-02-16T10:44:32.034Z,24.80
2023-02-16T10:47:03.931Z,22.50
2023-02-16T10:49:32.624Z,22.60
2023-02-16T10:52:02.556Z,24.45
2023-02-16T10:54:31.660Z,23.88
2023-02-16T10:57:04.092Z,23.70
2023-02-16T10:59:40.819Z,25.10
2023-02-16T11:02:27.362Z,23.65
2023-02-16T11:04:56.622Z,25.30
2023-02-16T11:07:26.829Z,24.02
2023-02-16T11:09:56.090Z,22.27
2023-02-16T11:12:32.302Z,24.73
2023-02-16T11:15:03.323Z,23.63
2023-02-16T11:17:32.162Z,25.25
2023-02-16T11:20:03.293Z,26.73
2023-02-16T11:22:36.870Z,25.80
2023-02-16T11:25:21.140Z,25.95
2023-02-16T11:28:00.109Z,26.95
2023-02-16T11:30:35.753Z,26.60
2023-02-16T11:33:05.471Z,27.25
2023-02-16T11:35:40.197Z,28.65
2023-02-16T11:38:06.922Z,27.95
2023-02-16T11:40:34.444Z,26.35
2023-02-16T11:43:02.090Z,28.98
2023-02-16T11:45:31.636Z,28.45
2023-02-16T11:48:26.704Z,28.85
2023-02-16T11:51:03.037Z,30.48
2023-02-16T11:53:32.898Z,54.95
2023-02-16T11:56:27.056Z,34.08
2023-02-16T11:59:20.689Z,27.42
2023-02-16T12:02:24.259Z,28.58
2023-02-16T12:05:10.461Z,28.67
2023-02-16T12:08:08.786Z,30.85
2023-02-16T12:11:09.304Z,31.48
2023-02-16T12:13:41.160Z,30.98
2023-02-16T12:16:36.912Z,30.20
2023-02-16T12:19:25.000Z,31.70
2023-02-16T12:22:14.686Z,31.63
2023-02-16T12:25:19.814Z,30.60
2023-02-16T12:28:16.675Z,30.98
2023-02-16T12:30:58.223Z,30.35
2023-02-16T12:33:43.187Z,32.28
2023-02-16T12:36:25.159Z,30.95
2023-02-16T12:39:00.602Z,30.77
2023-02-16T12:41:51.148Z,29.88
2023-02-16T12:44:30.808Z,31.77
2023-02-16T12:47:04.448Z,30.33
2023-02-16T12:50:00.152Z,29.00
2023-02-16T12:52:39.200Z,29.63
2023-02-16T12:55:25.193Z,30.38
2023-02-16T12:57:57.913Z,29.48
2023-02-16T13:00:41.469Z,30.73
2023-02-16T13:03:28.886Z,30.45
2023-02-16T13:06:37.394Z,30.20
2023-02-16T13:09:36.100Z,30.15
2023-02-16T13:12:24.264Z,29.52
2023-02-16T13:15:02.030Z,29.80
2023-02-16T13:17:34.275Z,27.58
2023-02-16T13:20:02.687Z,31.17
2023-02-16T13:22:50.785Z,30.85
2023-02-16T13:25:43.074Z,31.92
2023-02-16T13:28:42.652Z,31.77
2023-02-16T13:31:47.294Z,28.13
2023-02-16T13:34:48.756Z,29.77
2023-02-16T13:37:36.090Z,30.85
2023-02-16T13:40:29.954Z,31.13
2023-02-16T13:43:12.268Z,31.83
2023-02-16T13:45:42.841Z,30.73
2023-02-16T13:48:30.867Z,29.27
2023-02-16T13:51:00.547Z,29.90
2023-02-16T13:53:40.036Z,31.70
2023-02-16T13:56:17.513Z,32.95
2023-02-16T13:58:43.895Z,33.00
2023-02-16T14:01:32.555Z,39.58
2023-02-16T14:03:59.667Z,62.95
2023-02-16T14:06:26.758Z,67.50
2023-02-16T14:09:16.012Z,52.20
2023-02-16T14:11:52.734Z,36.45
2023-02-16T14:14:32.533Z,31.85
2023-02-16T14:17:23.861Z,29.95
2023-02-16T14:20:11.694Z,34.78
2023-02-16T14:22:38.591Z,37.00
2023-02-16T14:25:27.471Z,33.03
2023-02-16T14:27:59.997Z,34.70
2023-02-16T14:30:49.996Z,33.30
2023-02-16T14:33:22.586Z,31.40
2023-02-16T14:36:00.758Z,32.28
2023-02-16T14:38:31.686Z,36.28
2023-02-16T14:41:06.014Z,32.88
2023-02-16T14:43:39.380Z,31.35
2023-02-16T14:46:31.969Z,32.30
2023-02-16T14:49:01.228Z,32.60
2023-02-16T14:51:56.796Z,32.22
2023-02-16T14:54:30.292Z,31.52
2023-02-16T14:57:02.940Z,32.33
2023-02-16T14:59:42.228Z,32.80
2023-02-16T15:02:38.834Z,30.15
2023-02-16T15:05:19.464Z,30.42
2023-02-16T15:07:50.313Z,32.70
2023-02-16T15:10:21.839Z,32.22
2023-02-16T15:12:49.089Z,31.92
2023-02-16T15:15:24.987Z,31.45
2023-02-16T15:17:52.776Z,31.52
2023-02-16T15:20:38.412Z,31.92
2023-02-16T15:23:16.222Z,32.97
2023-02-16T15:25:42.822Z,31.95
2023-02-16T15:28:12.200Z,33.92
2023-02-16T15:30:46.775Z,33.00
2023-02-16T15:33:22.885Z,33.92
2023-02-16T15:35:53.685Z,34.80
2023-02-16T15:38:23.511Z,40.00
2023-02-16T15:40:58.783Z,40.20
2023-02-16T15:43:45.450Z,40.90
2023-02-16T15:46:34.296Z,37.75
2023-02-16T15:49:35.082Z,36.65
2023-02-16T15:52:01.972Z,34.30
2023-02-16T15:54:31.121Z,33.72
2023-02-16T15:57:30.717Z,33.10
2023-02-16T15:59:59.711Z,33.28
2023-02-16T16:02:34.326Z,31.40
2023-02-16T16:05:03.525Z,36.20
2023-02-16T16:07:35.597Z,33.53
2023-02-16T16:10:07.410Z,32.45
2023-02-16T16:12:34.004Z,29.30
2023-02-16T16:15:02.046Z,31.85
2023-02-16T16:17:32.244Z,28.90
2023-02-16T16:20:27.115Z,29.45
2023-02-16T16:23:04.379Z,27.25
2023-02-16T16:25:37.406Z,26.70
2023-02-16T16:28:07.739Z,27.65
2023-02-16T16:30:37.193Z,26.87
2023-02-16T16:33:10.205Z,25.17
2023-02-16T16:35:36.579Z,24.08
2023-02-16T16:38:03.608Z,23.15
2023-02-16T16:40:39.485Z,24.13
2023-02-16T16:43:11.630Z,48.28
2023-02-16T16:45:47.243Z,50.03
2023-02-16T16:48:22.130Z,54.38
2023-02-16T16:50:48.827Z,51.75
2023-02-16T16:53:30.292Z,48.97
2023-02-16T16:55:57.883Z,42.58
2023-02-16T16:58:24.228Z,39.13
2023-02-16T17:00:50.613Z,40.30
2023-02-16T17:03:18.102Z,37.15
2023-02-16T17:05:45.151Z,33.78
2023-02-16T17:08:11.595Z,32.20
2023-02-16T17:10:40.778Z,34.03
2023-02-16T17:13:08.058Z,33.55
2023-02-16T17:15:45.352Z,29.25
2023-02-16T17:18:17.869Z,28.40
2023-02-16T17:20:45.129Z,27.85
2023-02-16T17:23:13.245Z,26.90
2023-02-16T17:25:39.815Z,26.17
2023-02-16T17:28:08.207Z,27.58
2023-02-16T17:30:35.125Z,26.92
2023-02-16T17:33:02.328Z,26.88
2023-02-16T17:35:29.944Z,28.67
2023-02-16T17:37:56.368Z,29.48
2023-02-16T17:40:23.999Z,28.45
2023-02-16T17:42:51.170Z,30.00
2023-02-16T17:45:20.904Z,30.75
2023-02-16T17:47:51.022Z,31.08
2023-02-16T17:50:17.414Z,31.63
2023-02-16T17:52:44.598Z,30.02
2023-02-16T17:55:12.199Z,29.77
2023-02-16T17:57:39.027Z,29.45
2023-02-16T18:00:08.141Z,29.20
2023-02-16T18:02:34.679Z,29.00
2023-02-16T18:05:01.005Z,26.30
2023-02-16T18:07:27.719Z,25.02
2023-02-16T18:09:54.470Z,20.10
2023-02-16T18:12:20.852Z,21.83
2023-02-16T18:14:47.245Z,21.17
2023-02-16T18:17:13.639Z,19.05
2023-02-16T18:19:40.059Z,21.33
2023-02-16T18:22:06.382Z,20.27
2023-02-16T18:24:32.762Z,20.58
2023-02-16T18:26:59.098Z,22.23
2023-02-16T18:29:25.421Z,20.70
2023-02-16T18:31:51.930Z,20.08
2023-02-16T18:34:18.331Z,20.70
2023-02-16T18:36:44.660Z,20.77
2023-02-16T18:39:11.311Z,19.45
2023-02-16T18:41:37.963Z,19.95
2023-02-16T18:44:04.652Z,18.38
2023-02-16T18:46:31.020Z,18.83
2023-02-16T18:48:57.410Z,19.73
2023-02-16T18:51:28.743Z,19.75
2023-02-16T18:53:56.305Z,18.23
2023-02-16T18:56:22.664Z,19.17
2023-02-16T18:58:49.002Z,20.80
2023-02-16T19:01:30.479Z,25.05
2023-02-16T19:03:57.070Z,30.98
2023-02-16T19:06:23.383Z,31.70
2023-02-16T19:08:51.272Z,35.38
2023-02-16T19:11:21.668Z,34.67
2023-02-16T19:13:48.692Z,33.95
2023-02-16T19:16:16.766Z,35.03
2023-02-16T19:18:43.140Z,34.28
2023-02-16T19:21:12.980Z,33.97
2023-02-16T19:23:39.458Z,34.78
2023-02-16T19:26:08.413Z,34.67
2023-02-16T19:28:35.115Z,37.97
2023-02-16T19:31:03.430Z,38.85
2023-02-16T19:33:30.844Z,38.95
2023-02-16T19:36:03.219Z,42.60
2023-02-16T19:38:29.866Z,39.03
2023-02-16T19:40:56.412Z,43.88
2023-02-16T19:43:23.145Z,41.58
2023-02-16T19:45:49.937Z,43.33
2023-02-16T19:48:16.983Z,43.55
2023-02-16T19:50:43.448Z,43.65
2023-02-16T19:53:09.726Z,43.75
2023-02-16T19:55:40.137Z,42.72
2023-02-16T19:58:06.462Z,42.72
2023-02-16T20:00:32.809Z,42.67
2023-02-16T20:02:59.338Z,45.13
2023-02-16T20:05:25.736Z,43.47
2023-02-16T20:07:52.058Z,44.47
2023-02-16T20:10:18.422Z,41.17
2023-02-16T20:12:44.742Z,44.03
2023-02-16T20:15:13.900Z,41.28
2023-02-16T20:17:40.223Z,41.45
2023-02-16T20:20:07.413Z,39.55
2023-02-16T20:22:33.861Z,38.90
2023-02-16T20:25:03.684Z,39.28
2023-02-16T20:27:30.067Z,38.22
2023-02-16T20:29:56.500Z,35.40
2023-02-16T20:32:27.644Z,36.08
2023-02-16T20:34:54.033Z,33.45
2023-02-16T20:37:21.593Z,33.13
2023-02-16T20:39:48.250Z,32.20
2023-02-16T20:42:14.646Z,31.40
2023-02-16T20:44:41.117Z,29.42
2023-02-16T20:47:09.912Z,30.92
2023-02-16T20:49:36.301Z,29.15
2023-02-16T20:52:03.044Z,31.20
2023-02-16T20:54:29.558Z,32.90
2023-02-16T20:56:55.947Z,31.63
2023-02-16T20:59:22.322Z,32.13
2023-02-16T21:01:51.852Z,34.15
2023-02-16T21:04:19.490Z,35.63
2023-02-16T21:06:46.392Z,39.15
2023-02-16T21:09:13.874Z,36.33
2023-02-16T21:11:41.827Z,35.70
2023-02-16T21:14:11.092Z,36.13
2023-02-16T21:16:38.088Z,35.25
2023-02-16T21:19:11.754Z,33.72
2023-02-16T21:21:43.532Z,35.95
2023-02-16T21:24:09.961Z,32.05
2023-02-16T21:26:36.341Z,32.78
2023-02-16T21:29:02.722Z,33.42
2023-02-16T21:31:29.114Z,31.50
2023-02-16T21:33:55.469Z,32.88
2023-02-16T21:36:24.361Z,28.60
2023-02-16T21:38:50.961Z,30.20
2023-02-16T21:41:26.691Z,30.30
2023-02-16T21:43:55.962Z,35.25
2023-02-16T21:46:22.913Z,30.45
2023-02-16T21:48:50.177Z,40.22
2023-02-16T21:51:19.692Z,52.22
2023-02-16T21:53:47.226Z,38.88
2023-02-16T21:56:35.142Z,32.17
2023-02-16T21:59:01.678Z,31.38
2023-02-16T22:01:30.611Z,28.33
2023-02-16T22:03:59.251Z,27.50
2023-02-16T22:06:34.634Z,25.70
2023-02-16T22:09:05.344Z,24.48
2023-02-16T22:11:31.642Z,26.33
2023-02-16T22:13:59.970Z,28.50
2023-02-16T22:16:28.310Z,27.55
2023-02-16T22:19:06.130Z,30.35
2023-02-16T22:21:36.576Z,32.10
2023-02-16T22:24:03.419Z,35.13
2023-02-16T22:26:32.464Z,36.38
2023-02-16T22:28:59.250Z,35.88
2023-02-16T22:31:27.438Z,33.45
2023-02-16T22:34:01.769Z,30.23
2023-02-16T22:36:28.597Z,29.45
2023-02-16T22:38:55.715Z,27.77
2023-02-16T22:41:22.970Z,28.67
2023-02-16T22:43:54.369Z,33.60
2023-02-16T22:46:22.726Z,37.05
2023-02-16T22:48:49.155Z,36.22
2023-02-16T22:51:16.999Z,38.40
2023-02-16T22:53:43.733Z,38.33
2023-02-16T22:56:13.575Z,37.63
2023-02-16T22:58:39.867Z,35.17
2023-02-16T23:01:12.206Z,34.70
2023-02-16T23:03:38.676Z,33.92
2023-02-16T23:06:16.873Z,34.78
2023-02-16T23:08:44.437Z,31.73
2023-02-16T23:11:11.374Z,30.67
2023-02-16T23:13:38.672Z,31.98
2023-02-16T23:16:13.953Z,29.38
2023-02-16T23:18:40.778Z,29.67
2023-02-16T23:21:08.372Z,27.15
2023-02-16T23:23:35.227Z,23.73
2023-02-16T23:26:01.560Z,24.30
2023-02-16T23:28:27.879Z,23.38
2023-02-16T23:30:56.163Z,22.88
2023-02-16T23:33:22.745Z,19.88
2023-02-16T23:35:49.057Z,19.20
2023-02-16T23:38:15.544Z,19.92
2023-02-16T23:40:42.944Z,19.13
2023-02-16T23:43:10.372Z,20.50
2023-02-16T23:45:37.002Z,19.50
2023-02-16T23:48:03.537Z,19.98
2023-02-16T23:50:30.035Z,18.52
2023-02-16T23:52:56.367Z,18.90
2023-02-16T23:55:22.826Z,17.60
2023-02-16T23:57:49.117Z,18.63
